Terminal Aerodrome Forecast
Issued by NWS

Home | Current Version | Previous Version | Graphics & Text | Print | Product List | Glossary On
Versions: 1 2 3 4 5 6 7 8 9 10 11 12 13 14 15 16 17
152
FTUS43 KBIS 231537 AAA
TAFJMS
TAF AMD
KJMS 231537Z 2316/2412 32022G29KT P6SM OVC027
     FM231800 31022G31KT P6SM BKN028 BKN080
     FM232000 31022G30KT P6SM BKN035
     FM240200 32009KT P6SM FEW035 FEW200
     FM241100 31015G23KT P6SM BKN040=

USA.gov is the U.S. government's official web portal to all federal, state and local government web resources and services.